Southsea, United Kingdom
Current Conditions -  °F | °C
As of 8:20 AM on Thursday 27 Nov 2014 (Local Time) from EGHI Reporting Station
Haze Haze  
Wind Chill:   Ceiling: 500
Heat Index:   Visibility: 3mi
Dew Point:   Wind: 1mph
Humidity: 93%   Direction: 140°SE
Pressure: 29.65"   Gusts: NA
Location:  50.79°N, 1.07°W
Report Text: EGHI 270820Z 14001KT 5000 BR SCT003 BKN005 07/06 Q1004
Loading
Personal Weather Stations






























Interactive Weather Map New forecast layout! Learn more

10-Day Weather Forecast

Advertisements
Track Severe Weather on mobile